createdAt,value
2017-12-08T00:01:04.320Z,4.20
2017-12-08T00:03:31.392Z,4.17
2017-12-08T00:05:57.660Z,5.17
2017-12-08T00:08:24.666Z,3.27
2017-12-08T00:10:50.975Z,3.17
2017-12-08T00:13:17.253Z,3.27
2017-12-08T00:15:43.528Z,4.20
2017-12-08T00:18:09.856Z,3.43
2017-12-08T00:20:36.892Z,2.40
2017-12-08T00:23:03.928Z,2.60
2017-12-08T00:25:30.960Z,2.57
2017-12-08T00:27:57.997Z,2.47
2017-12-08T00:30:25.011Z,2.63
2017-12-08T00:32:51.319Z,2.40
2017-12-08T00:35:17.612Z,1.10
2017-12-08T00:37:43.896Z,1.40
2017-12-08T00:40:10.205Z,1.57
2017-12-08T00:42:36.524Z,1.37
2017-12-08T00:45:02.824Z,1.03
2017-12-08T00:47:29.160Z,1.37
2017-12-08T00:49:55.448Z,1.17
2017-12-08T00:52:22.475Z,1.00
2017-12-08T00:54:49.527Z,3.40
2017-12-08T00:57:15.833Z,0.97
2017-12-08T00:59:42.852Z,0.70
2017-12-08T01:02:09.941Z,0.90
2017-12-08T01:04:36.232Z,0.90
2017-12-08T01:07:02.503Z,0.90
2017-12-08T01:09:28.836Z,0.90
2017-12-08T01:11:55.867Z,0.80
2017-12-08T01:14:22.909Z,0.83
2017-12-08T01:16:49.216Z,1.23
2017-12-08T01:19:16.229Z,0.83
2017-12-08T01:21:42.515Z,0.63
2017-12-08T01:24:08.812Z,1.03
2017-12-08T01:26:35.091Z,0.60
2017-12-08T01:29:01.401Z,0.60
2017-12-08T01:31:27.706Z,0.70
2017-12-08T01:33:53.986Z,0.40
2017-12-08T01:36:20.284Z,0.60
2017-12-08T01:38:46.592Z,1.83
2017-12-08T01:41:12.917Z,0.50
2017-12-08T01:43:39.237Z,1.07
2017-12-08T01:46:05.590Z,0.60
2017-12-08T01:48:31.883Z,0.60
2017-12-08T01:50:58.219Z,0.37
2017-12-08T01:53:24.571Z,0.47
2017-12-08T01:55:51.620Z,0.40
2017-12-08T01:58:17.909Z,0.40
2017-12-08T02:00:44.238Z,0.27
2017-12-08T02:03:11.316Z,2.13
2017-12-08T02:05:37.628Z,2.43
2017-12-08T02:08:03.964Z,2.83
2017-12-08T02:10:30.263Z,5.17
2017-12-08T02:12:56.584Z,6.33
2017-12-08T02:15:22.911Z,3.73
2017-12-08T02:17:49.212Z,4.23
2017-12-08T02:20:15.533Z,6.17
2017-12-08T02:22:41.875Z,7.10
2017-12-08T02:25:08.360Z,7.47
2017-12-08T02:27:34.684Z,5.87
2017-12-08T02:30:01.035Z,8.70
2017-12-08T02:32:27.356Z,8.80
2017-12-08T02:34:53.674Z,7.73
2017-12-08T02:37:20.015Z,9.67
2017-12-08T02:39:46.343Z,10.87
2017-12-08T02:42:12.630Z,8.27
2017-12-08T02:44:39.700Z,12.33
2017-12-08T02:47:06.016Z,9.47
2017-12-08T02:49:32.327Z,7.93
2017-12-08T02:51:58.661Z,11.07
2017-12-08T02:54:24.947Z,6.63
2017-12-08T02:56:51.246Z,11.77
2017-12-08T02:59:17.579Z,14.97
2017-12-08T03:01:43.898Z,11.17
2017-12-08T03:04:10.180Z,8.67
2017-12-08T03:06:36.530Z,13.90
2017-12-08T03:09:02.865Z,12.93
2017-12-08T03:11:29.157Z,10.20
2017-12-08T03:13:55.494Z,7.73
2017-12-08T03:16:21.770Z,16.17
2017-12-08T03:18:48.868Z,13.23
2017-12-08T03:21:15.196Z,10.97
2017-12-08T03:23:41.495Z,11.83
2017-12-08T03:26:07.792Z,7.40
2017-12-08T03:28:34.136Z,8.57
2017-12-08T03:31:00.450Z,7.23
2017-12-08T03:33:26.759Z,10.53
2017-12-08T03:35:53.079Z,11.17
2017-12-08T03:38:19.387Z,11.57
2017-12-08T03:40:45.704Z,16.20
2017-12-08T03:43:12.034Z,11.33
2017-12-08T03:45:38.381Z,9.80
2017-12-08T03:48:05.427Z,7.80
2017-12-08T03:50:31.756Z,12.83
2017-12-08T03:52:58.052Z,10.63
2017-12-08T03:55:24.355Z,7.47
2017-12-08T03:57:51.402Z,11.17
2017-12-08T04:00:18.484Z,10.90
2017-12-08T04:02:44.795Z,10.07
2017-12-08T04:05:11.137Z,14.03
2017-12-08T04:07:37.436Z,13.73
2017-12-08T04:10:03.725Z,13.30
2017-12-08T04:12:30.047Z,9.37
2017-12-08T04:14:56.353Z,11.03
2017-12-08T04:17:22.639Z,10.33
2017-12-08T04:19:49.713Z,9.80
2017-12-08T04:22:16.011Z,16.43
2017-12-08T04:24:42.304Z,12.63
2017-12-08T04:27:08.656Z,10.33
2017-12-08T04:29:34.944Z,19.07
2017-12-08T04:32:01.239Z,17.27
2017-12-08T04:34:28.295Z,12.33
2017-12-08T04:36:54.591Z,13.90
2017-12-08T04:39:21.648Z,17.27
2017-12-08T04:41:48.012Z,16.43
2017-12-08T04:44:14.309Z,8.87
2017-12-08T04:46:40.596Z,16.10
2017-12-08T04:49:06.927Z,11.83
2017-12-08T04:51:36.296Z,15.27
2017-12-08T04:54:05.742Z,21.73
2017-12-08T04:56:34.589Z,22.23
2017-12-08T04:59:03.181Z,18.47
2017-12-08T05:01:29.513Z,21.20
2017-12-08T05:03:55.852Z,19.87
2017-12-08T05:06:22.916Z,16.93
2017-12-08T05:08:49.194Z,14.73
2017-12-08T05:11:16.277Z,17.80
2017-12-08T05:13:42.575Z,20.87
2017-12-08T05:16:08.921Z,18.77
2017-12-08T05:18:35.271Z,18.97
2017-12-08T05:21:02.321Z,26.50
2017-12-08T05:23:28.648Z,26.70
2017-12-08T05:25:55.003Z,21.13
2017-12-08T05:28:21.322Z,16.77
2017-12-08T05:30:47.600Z,13.10
2017-12-08T05:33:13.935Z,17.27
2017-12-08T05:35:40.222Z,25.90
2017-12-08T05:38:06.513Z,18.83
2017-12-08T05:40:33.615Z,23.13
2017-12-08T05:42:59.915Z,21.93
2017-12-08T05:45:26.230Z,26.17
2017-12-08T05:47:52.561Z,27.73
2017-12-08T05:50:18.880Z,25.03
2017-12-08T05:52:45.201Z,25.27
2017-12-08T05:55:11.512Z,27.93
2017-12-08T05:57:37.805Z,20.27
2017-12-08T06:00:04.116Z,20.50
2017-12-08T06:02:30.444Z,19.20
2017-12-08T06:04:56.715Z,22.17
2017-12-08T06:07:23.776Z,20.97
2017-12-08T06:09:50.062Z,18.00
2017-12-08T06:12:17.124Z,18.00
2017-12-08T06:14:43.435Z,21.80
2017-12-08T06:17:09.831Z,21.47
2017-12-08T06:19:36.878Z,18.70
2017-12-08T06:22:03.178Z,28.47
2017-12-08T06:24:29.501Z,20.08
2017-12-08T06:26:55.804Z,18.97
2017-12-08T06:29:22.099Z,17.33
2017-12-08T06:31:48.420Z,21.27
2017-12-08T06:34:14.715Z,16.03
2017-12-08T06:36:41.028Z,15.13
2017-12-08T06:39:07.366Z,17.50
2017-12-08T06:41:33.647Z,23.87
2017-12-08T06:43:59.945Z,22.20
2017-12-08T06:46:26.248Z,19.10
2017-12-08T06:48:52.564Z,23.33
2017-12-08T06:51:18.848Z,18.93
2017-12-08T06:53:45.145Z,16.87
2017-12-08T06:56:11.431Z,13.37
2017-12-08T06:58:37.691Z,13.87
2017-12-08T07:01:04.855Z,14.17
2017-12-08T07:03:31.128Z,22.60
2017-12-08T07:05:57.624Z,22.03
2017-12-08T07:08:24.764Z,15.50
2017-12-08T07:10:51.098Z,21.00
2017-12-08T07:13:17.554Z,21.73
2017-12-08T07:15:45.001Z,24.63
2017-12-08T07:18:11.320Z,26.33
2017-12-08T07:20:37.759Z,18.20
2017-12-08T07:23:04.695Z,20.20
2017-12-08T07:25:32.586Z,17.57
2017-12-08T07:27:59.336Z,11.30
2017-12-08T07:30:26.412Z,18.37
2017-12-08T07:32:52.711Z,14.63
2017-12-08T07:35:19.043Z,21.67
2017-12-08T07:37:45.369Z,16.30
2017-12-08T07:40:11.665Z,16.20
2017-12-08T07:42:37.983Z,10.17
2017-12-08T07:45:04.328Z,15.70
2017-12-08T07:47:30.628Z,15.47
2017-12-08T07:49:56.924Z,27.00
2017-12-08T07:52:24.847Z,15.33
2017-12-08T07:55:00.458Z,15.47
2017-12-08T07:57:36.027Z,16.97
2017-12-08T08:00:02.383Z,19.60
2017-12-08T08:02:29.735Z,18.00
2017-12-08T08:04:56.019Z,21.23
2017-12-08T08:07:22.296Z,15.17
2017-12-08T08:09:52.261Z,22.07
2017-12-08T08:12:27.796Z,18.03
2017-12-08T08:15:00.737Z,15.03
2017-12-08T08:17:27.663Z,20.57
2017-12-08T08:20:01.663Z,13.80
2017-12-08T08:22:33.060Z,21.60
2017-12-08T08:25:02.472Z,29.67
2017-12-08T08:27:28.804Z,12.67
2017-12-08T08:30:05.040Z,15.03
2017-12-08T08:32:35.816Z,19.20
2017-12-08T08:35:11.271Z,10.83
2017-12-08T08:37:37.964Z,11.73
2017-12-08T08:40:04.904Z,15.67
2017-12-08T08:42:31.964Z,19.43
2017-12-08T08:44:58.275Z,10.80
2017-12-08T08:47:24.568Z,15.60
2017-12-08T08:50:02.592Z,14.57
2017-12-08T08:52:35.823Z,18.03
2017-12-08T08:55:02.119Z,11.83
2017-12-08T08:57:28.413Z,13.27
2017-12-08T08:59:54.721Z,13.97
2017-12-08T09:02:21.051Z,9.50
2017-12-08T09:04:47.348Z,23.33
2017-12-08T09:07:13.642Z,7.87
2017-12-08T09:09:40.721Z,7.73
2017-12-08T09:12:07.001Z,6.47
2017-12-08T09:14:33.288Z,7.97
2017-12-08T09:16:59.612Z,11.47
2017-12-08T09:19:26.678Z,11.10
2017-12-08T09:21:52.992Z,10.07
2017-12-08T09:24:19.348Z,11.93
2017-12-08T09:26:45.644Z,6.47
2017-12-08T09:29:11.973Z,10.33
2017-12-08T09:31:38.652Z,15.43
2017-12-08T09:34:04.934Z,7.37
2017-12-08T09:36:31.237Z,12.80
2017-12-08T09:38:57.539Z,9.30
2017-12-08T09:41:23.875Z,6.40
2017-12-08T09:43:50.170Z,12.67
2017-12-08T09:46:16.497Z,7.63
2017-12-08T09:48:42.779Z,6.67
2017-12-08T09:51:09.059Z,12.33
2017-12-08T09:53:36.153Z,9.10
2017-12-08T09:56:02.481Z,5.77
2017-12-08T09:58:28.783Z,12.40
2017-12-08T10:00:55.144Z,13.30
2017-12-08T10:03:22.171Z,12.57
2017-12-08T10:05:48.472Z,8.67
2017-12-08T10:08:14.805Z,13.87
2017-12-08T10:10:41.861Z,11.93
2017-12-08T10:13:08.136Z,9.87
2017-12-08T10:15:34.448Z,8.60
2017-12-08T10:18:00.764Z,11.03
2017-12-08T10:20:27.069Z,8.33
2017-12-08T10:22:53.403Z,10.30
2017-12-08T10:25:19.745Z,8.17
2017-12-08T10:27:46.804Z,5.80
2017-12-08T10:30:13.254Z,9.00
2017-12-08T10:32:39.560Z,13.10
2017-12-08T10:35:05.892Z,15.93
2017-12-08T10:37:32.220Z,7.30
2017-12-08T10:39:59.284Z,9.33
2017-12-08T10:42:25.628Z,4.73
2017-12-08T10:44:51.993Z,5.30
2017-12-08T10:47:19.028Z,7.40
2017-12-08T10:49:46.059Z,6.63
2017-12-08T10:52:12.399Z,12.20
2017-12-08T10:54:38.687Z,11.30
2017-12-08T10:57:05.784Z,10.50
2017-12-08T10:59:32.091Z,7.60
2017-12-08T11:01:58.473Z,7.97
2017-12-08T11:04:24.757Z,7.10
2017-12-08T11:06:51.072Z,7.57
2017-12-08T11:09:17.364Z,11.30
2017-12-08T11:11:43.648Z,8.27
2017-12-08T11:14:09.988Z,11.80
2017-12-08T11:16:36.300Z,11.77
2017-12-08T11:19:02.608Z,13.07
2017-12-08T11:21:28.940Z,10.27
2017-12-08T11:23:55.774Z,6.87
2017-12-08T11:26:22.132Z,14.60
2017-12-08T11:28:48.464Z,4.93
2017-12-08T11:31:14.756Z,11.07
2017-12-08T11:33:41.812Z,9.93
2017-12-08T11:36:08.148Z,9.40
2017-12-08T11:38:34.438Z,5.90
2017-12-08T11:41:00.763Z,2.93
2017-12-08T11:43:27.094Z,4.30
2017-12-08T11:45:55.484Z,4.27
2017-12-08T11:48:21.773Z,4.33
2017-12-08T11:50:48.104Z,3.03
2017-12-08T11:53:14.407Z,3.80
2017-12-08T11:55:40.687Z,1.93
2017-12-08T11:58:07.011Z,2.70
2017-12-08T12:00:33.367Z,5.90
2017-12-08T12:02:59.619Z,2.77
2017-12-08T12:05:25.920Z,1.50
2017-12-08T12:07:52.207Z,3.80
2017-12-08T12:10:18.509Z,2.67
2017-12-08T12:12:45.554Z,2.33
2017-12-08T12:15:12.574Z,2.73
2017-12-08T12:17:39.603Z,4.47
2017-12-08T12:20:05.907Z,3.00
2017-12-08T12:22:32.193Z,2.83
2017-12-08T12:24:58.477Z,3.70
2017-12-08T12:27:25.518Z,0.63
2017-12-08T12:29:51.802Z,3.03
2017-12-08T12:32:18.085Z,1.83
2017-12-08T12:34:44.383Z,3.97
2017-12-08T12:37:10.690Z,2.33
2017-12-08T12:39:36.988Z,5.20
2017-12-08T12:42:03.293Z,2.33
2017-12-08T12:44:30.320Z,3.03
2017-12-08T12:46:57.340Z,1.60
2017-12-08T12:49:23.666Z,2.90
2017-12-08T12:51:50.737Z,4.13
2017-12-08T12:54:17.000Z,5.03
2017-12-08T12:56:43.347Z,2.07
2017-12-08T12:59:09.636Z,2.70
2017-12-08T13:01:35.945Z,5.07
2017-12-08T13:04:02.275Z,3.30
2017-12-08T13:06:28.576Z,5.07
2017-12-08T13:08:54.843Z,5.63
2017-12-08T13:11:21.155Z,2.57
2017-12-08T13:13:47.437Z,5.20
2017-12-08T13:16:14.466Z,1.60
2017-12-08T13:18:41.505Z,10.37
2017-12-08T13:21:09.389Z,2.93
2017-12-08T13:23:36.451Z,1.40
2017-12-08T13:26:03.023Z,3.20
2017-12-08T13:28:29.344Z,1.23
2017-12-08T13:30:55.614Z,2.53
2017-12-08T13:33:21.908Z,0.83
2017-12-08T13:35:48.184Z,1.60
2017-12-08T13:38:14.527Z,1.00
2017-12-08T13:40:40.835Z,5.70
2017-12-08T13:43:07.136Z,2.33
2017-12-08T13:45:35.032Z,2.00
2017-12-08T13:48:01.323Z,7.33
2017-12-08T13:50:27.591Z,3.17
2017-12-08T13:52:53.888Z,3.33
2017-12-08T13:55:32.537Z,1.80
2017-12-08T13:57:59.559Z,4.00
2017-12-08T14:00:25.852Z,4.50
2017-12-08T14:02:52.191Z,2.00
2017-12-08T14:05:19.279Z,2.00
2017-12-08T14:07:45.574Z,4.90
2017-12-08T14:10:11.912Z,2.70
2017-12-08T14:12:38.211Z,1.50
2017-12-08T14:15:04.556Z,3.43
2017-12-08T14:17:30.871Z,3.80
2017-12-08T14:19:57.159Z,6.87
2017-12-08T14:22:23.503Z,4.93
2017-12-08T14:24:49.829Z,7.07
2017-12-08T14:27:16.206Z,5.13
2017-12-08T14:29:45.105Z,5.43
2017-12-08T14:32:12.874Z,5.50
2017-12-08T14:34:39.317Z,4.23
2017-12-08T14:37:06.828Z,4.13
2017-12-08T14:39:34.220Z,3.70
2017-12-08T14:42:02.418Z,6.27
2017-12-08T14:44:29.044Z,3.20
2017-12-08T14:46:55.736Z,5.50
2017-12-08T14:49:22.031Z,6.67
2017-12-08T14:51:48.450Z,5.17
2017-12-08T14:54:15.055Z,4.77
2017-12-08T14:56:41.755Z,9.20
2017-12-08T14:59:09.407Z,6.97
2017-12-08T15:01:36.410Z,1.50
2017-12-08T15:04:04.634Z,2.37
2017-12-08T15:06:32.067Z,4.30
2017-12-08T15:09:00.615Z,3.60
2017-12-08T15:11:26.997Z,7.07
2017-12-08T15:13:53.796Z,2.93
2017-12-08T15:16:20.194Z,3.90
2017-12-08T15:18:46.558Z,4.23
2017-12-08T15:21:13.499Z,5.07
2017-12-08T15:23:40.742Z,3.73
2017-12-08T15:26:07.078Z,3.43
2017-12-08T15:28:33.348Z,5.50
2017-12-08T15:31:00.969Z,3.97
2017-12-08T15:33:27.291Z,3.50
2017-12-08T15:35:54.719Z,4.07
2017-12-08T15:38:23.102Z,7.43
2017-12-08T15:40:49.487Z,4.40
2017-12-08T15:43:15.933Z,3.23
2017-12-08T15:45:42.316Z,2.57
2017-12-08T15:48:08.649Z,4.60
2017-12-08T15:50:34.985Z,3.90
2017-12-08T15:53:03.532Z,3.23
2017-12-08T15:55:29.876Z,5.43
2017-12-08T15:57:56.931Z,5.80
2017-12-08T16:00:24.096Z,10.23
2017-12-08T16:02:50.827Z,4.57
2017-12-08T16:05:17.482Z,5.00
2017-12-08T16:07:43.794Z,6.77
2017-12-08T16:10:10.099Z,11.80
2017-12-08T16:12:36.386Z,2.57
2017-12-08T16:15:02.758Z,6.13
2017-12-08T16:17:29.043Z,8.03
2017-12-08T16:19:55.326Z,5.17
2017-12-08T16:22:22.403Z,5.20
2017-12-08T16:24:48.736Z,5.17
2017-12-08T16:27:15.052Z,6.83
2017-12-08T16:29:42.120Z,10.20
2017-12-08T16:32:08.895Z,6.97
2017-12-08T16:34:35.206Z,4.60
2017-12-08T16:37:01.595Z,4.90
2017-12-08T16:39:27.931Z,4.13
2017-12-08T16:41:54.364Z,6.20
2017-12-08T16:44:21.069Z,5.30
2017-12-08T16:46:47.551Z,4.67
2017-12-08T16:49:13.878Z,5.90
2017-12-08T16:51:40.180Z,2.50
2017-12-08T16:54:06.482Z,6.30
2017-12-08T16:56:33.516Z,4.23
2017-12-08T16:59:00.642Z,3.00
2017-12-08T17:01:27.703Z,5.33
2017-12-08T17:03:53.997Z,3.50
2017-12-08T17:06:21.100Z,3.90
2017-12-08T17:08:47.404Z,7.30
2017-12-08T17:11:13.683Z,5.47
2017-12-08T17:13:39.999Z,4.50
2017-12-08T17:16:06.302Z,4.67
2017-12-08T17:18:32.577Z,2.33
2017-12-08T17:20:58.921Z,3.50
2017-12-08T17:23:25.952Z,4.53
2017-12-08T17:25:53.031Z,2.87
2017-12-08T17:28:19.385Z,3.87
2017-12-08T17:30:45.740Z,4.93
2017-12-08T17:33:12.058Z,2.80
2017-12-08T17:35:38.383Z,7.00
2017-12-08T17:38:04.693Z,1.93
2017-12-08T17:40:31.016Z,6.00
2017-12-08T17:42:57.322Z,2.23
2017-12-08T17:45:23.614Z,1.43
2017-12-08T17:47:50.631Z,2.37
2017-12-08T17:50:16.991Z,3.37
2017-12-08T17:52:43.352Z,6.40
2017-12-08T17:55:09.638Z,5.13
2017-12-08T17:57:35.955Z,4.73
2017-12-08T18:00:02.328Z,5.13
2017-12-08T18:02:29.354Z,4.20
2017-12-08T18:04:55.685Z,5.63
2017-12-08T18:07:22.714Z,3.20
2017-12-08T18:09:49.782Z,5.07
2017-12-08T18:12:16.139Z,3.17
2017-12-08T18:14:42.503Z,3.97
2017-12-08T18:17:08.825Z,4.17
2017-12-08T18:19:35.197Z,5.40
2017-12-08T18:22:01.520Z,2.40
2017-12-08T18:24:27.840Z,7.20
2017-12-08T18:26:54.166Z,8.17
2017-12-08T18:29:21.218Z,3.90
2017-12-08T18:31:47.544Z,3.77
2017-12-08T18:34:13.897Z,7.27
2017-12-08T18:36:40.230Z,11.63
2017-12-08T18:39:06.606Z,8.03
2017-12-08T18:41:32.935Z,6.50
2017-12-08T18:43:59.792Z,7.00
2017-12-08T18:46:26.140Z,11.17
2017-12-08T18:48:52.470Z,5.57
2017-12-08T18:51:18.788Z,5.40
2017-12-08T18:53:45.827Z,13.60
2017-12-08T18:56:12.203Z,11.97
2017-12-08T18:58:39.267Z,9.10
2017-12-08T19:01:05.585Z,3.87
2017-12-08T19:03:31.889Z,5.73
2017-12-08T19:05:58.217Z,9.00
2017-12-08T19:08:24.522Z,4.60
2017-12-08T19:10:50.851Z,3.00
2017-12-08T19:13:17.141Z,8.33
2017-12-08T19:15:43.449Z,3.20
2017-12-08T19:18:10.551Z,3.67
2017-12-08T19:20:36.843Z,4.83
2017-12-08T19:23:03.170Z,2.53
2017-12-08T19:25:29.509Z,3.17
2017-12-08T19:27:55.788Z,3.33
2017-12-08T19:30:22.115Z,1.47
2017-12-08T19:32:48.448Z,5.10
2017-12-08T19:35:14.748Z,7.23
2017-12-08T19:37:41.065Z,1.33
2017-12-08T19:40:07.396Z,1.87
2017-12-08T19:42:33.674Z,1.43
2017-12-08T19:44:59.958Z,4.20
2017-12-08T19:47:27.008Z,2.63
2017-12-08T19:49:53.323Z,3.43
2017-12-08T19:52:19.627Z,7.90
2017-12-08T19:54:47.383Z,2.60
2017-12-08T19:57:14.537Z,4.93
2017-12-08T19:59:40.884Z,4.17
2017-12-08T20:02:07.222Z,6.63
2017-12-08T20:04:33.523Z,3.67
2017-12-08T20:06:59.863Z,5.07
2017-12-08T20:09:26.945Z,10.57
2017-12-08T20:11:53.251Z,4.67
2017-12-08T20:14:19.565Z,5.43
2017-12-08T20:16:45.906Z,5.87
2017-12-08T20:19:12.199Z,5.23
2017-12-08T20:21:38.508Z,7.20
2017-12-08T20:24:04.852Z,11.13
2017-12-08T20:26:31.172Z,7.50
2017-12-08T20:28:57.455Z,3.53
2017-12-08T20:31:23.808Z,5.87
2017-12-08T20:33:50.117Z,3.87
2017-12-08T20:36:16.447Z,3.87
2017-12-08T20:38:42.813Z,7.87
2017-12-08T20:41:09.139Z,6.20
2017-12-08T20:43:35.411Z,6.30
2017-12-08T20:46:01.730Z,3.07
2017-12-08T20:48:28.009Z,2.70
2017-12-08T20:50:54.295Z,6.03
2017-12-08T20:53:20.615Z,8.27
2017-12-08T20:55:46.898Z,4.03
2017-12-08T20:58:13.407Z,2.77
2017-12-08T21:00:39.952Z,3.97
2017-12-08T21:03:06.979Z,3.17
2017-12-08T21:05:33.297Z,2.87
2017-12-08T21:07:59.624Z,5.53
2017-12-08T21:10:27.427Z,6.43
2017-12-08T21:12:54.495Z,4.40
2017-12-08T21:15:20.836Z,4.90
2017-12-08T21:17:47.118Z,7.50
2017-12-08T21:20:13.417Z,3.13
2017-12-08T21:22:39.731Z,2.53
2017-12-08T21:25:06.108Z,3.63
2017-12-08T21:27:32.426Z,5.93
2017-12-08T21:29:58.806Z,3.13
2017-12-08T21:32:25.908Z,5.60
2017-12-08T21:34:52.251Z,5.60
2017-12-08T21:37:18.652Z,6.13
2017-12-08T21:39:45.067Z,6.33
2017-12-08T21:42:11.389Z,7.07
2017-12-08T21:44:37.755Z,5.77
2017-12-08T21:47:04.078Z,3.00
2017-12-08T21:49:30.415Z,4.43
2017-12-08T21:51:56.760Z,5.00
2017-12-08T21:54:23.087Z,5.07
2017-12-08T21:56:49.447Z,2.60
2017-12-08T21:59:15.813Z,5.13
2017-12-08T22:01:42.292Z,4.20
2017-12-08T22:04:08.623Z,4.03
2017-12-08T22:06:34.959Z,2.73
2017-12-08T22:09:01.346Z,6.57
2017-12-08T22:11:28.513Z,4.20
2017-12-08T22:13:55.952Z,3.37
2017-12-08T22:16:22.361Z,4.30
2017-12-08T22:18:48.736Z,8.60
2017-12-08T22:21:15.159Z,4.80
2017-12-08T22:23:41.527Z,4.77
2017-12-08T22:26:07.881Z,5.00
2017-12-08T22:28:34.988Z,7.57
2017-12-08T22:31:01.513Z,5.10
2017-12-08T22:33:27.852Z,4.27
2017-12-08T22:35:54.939Z,3.33
2017-12-08T22:38:21.375Z,10.70
2017-12-08T22:40:47.862Z,5.07
2017-12-08T22:43:14.236Z,4.03
2017-12-08T22:45:41.329Z,6.40
2017-12-08T22:48:07.715Z,5.90
2017-12-08T22:50:34.153Z,6.30
2017-12-08T22:53:00.485Z,2.20
2017-12-08T22:55:26.844Z,7.80
2017-12-08T22:57:53.969Z,5.10
2017-12-08T23:00:26.875Z,6.27
2017-12-08T23:02:53.193Z,4.17
2017-12-08T23:05:19.516Z,7.17
2017-12-08T23:07:45.814Z,5.87
2017-12-08T23:10:12.118Z,4.77
2017-12-08T23:12:38.423Z,9.03
2017-12-08T23:15:05.525Z,6.33
2017-12-08T23:17:31.841Z,3.80
2017-12-08T23:19:58.162Z,5.23
2017-12-08T23:22:24.432Z,7.10
2017-12-08T23:24:50.732Z,6.17
2017-12-08T23:27:17.003Z,4.30
2017-12-08T23:29:43.286Z,3.07
2017-12-08T23:32:09.593Z,7.13
2017-12-08T23:34:35.874Z,6.07
2017-12-08T23:37:02.928Z,3.43
2017-12-08T23:39:31.059Z,6.80
2017-12-08T23:41:58.090Z,3.47
2017-12-08T23:44:25.114Z,7.37
2017-12-08T23:46:51.411Z,7.67
2017-12-08T23:49:17.697Z,6.43
2017-12-08T23:51:44.007Z,2.77
2017-12-08T23:54:10.331Z,5.90
2017-12-08T23:56:36.604Z,4.07
2017-12-08T23:59:03.636Z,6.93
